sensor_id;sensor_type;location;lat;lon;timestamp;P1;durP1;ratioP1;P2;durP2;ratioP2
48925;SDS011;39838;59.938;30.642;2022-10-16T00:00:40;16.30;;;9.15;;
48925;SDS011;39838;59.938;30.642;2022-10-16T00:03:08;14.20;;;9.18;;
48925;SDS011;39838;59.938;30.642;2022-10-16T00:05:40;14.27;;;9.35;;
48925;SDS011;39838;59.938;30.642;2022-10-16T00:08:10;16.08;;;9.10;;
48925;SDS011;39838;59.938;30.642;2022-10-16T00:10:39;14.00;;;8.95;;
48925;SDS011;39838;59.938;30.642;2022-10-16T00:13:07;16.83;;;9.70;;
48925;SDS011;39838;59.938;30.642;2022-10-16T00:15:34;18.85;;;9.52;;
48925;SDS011;39838;59.938;30.642;2022-10-16T00:18:04;17.33;;;9.27;;
48925;SDS011;39838;59.938;30.642;2022-10-16T00:20:33;14.02;;;9.05;;
48925;SDS011;39838;59.938;30.642;2022-10-16T00:23:21;17.42;;;9.10;;
48925;SDS011;39838;59.938;30.642;2022-10-16T00:25:55;14.05;;;8.88;;
48925;SDS011;39838;59.938;30.642;2022-10-16T00:28:23;14.23;;;8.73;;
48925;SDS011;39838;59.938;30.642;2022-10-16T00:30:50;15.02;;;8.70;;
48925;SDS011;39838;59.938;30.642;2022-10-16T00:33:18;13.15;;;9.23;;
48925;SDS011;39838;59.938;30.642;2022-10-16T00:35:45;12.90;;;8.70;;
48925;SDS011;39838;59.938;30.642;2022-10-16T00:38:13;13.75;;;9.35;;
48925;SDS011;39838;59.938;30.642;2022-10-16T00:40:41;13.90;;;8.80;;
48925;SDS011;39838;59.938;30.642;2022-10-16T00:43:12;15.65;;;9.75;;
48925;SDS011;39838;59.938;30.642;2022-10-16T00:45:40;17.38;;;9.20;;
48925;SDS011;39838;59.938;30.642;2022-10-16T00:48:10;14.13;;;8.95;;
48925;SDS011;39838;59.938;30.642;2022-10-16T00:50:39;16.67;;;9.30;;
48925;SDS011;39838;59.938;30.642;2022-10-16T00:53:08;17.55;;;9.93;;
48925;SDS011;39838;59.938;30.642;2022-10-16T00:55:37;16.70;;;9.40;;
48925;SDS011;39838;59.938;30.642;2022-10-16T00:58:05;18.17;;;9.82;;
48925;SDS011;39838;59.938;30.642;2022-10-16T01:00:32;14.85;;;8.73;;
48925;SDS011;39838;59.938;30.642;2022-10-16T01:03:00;14.27;;;9.80;;
48925;SDS011;39838;59.938;30.642;2022-10-16T01:05:30;14.32;;;9.18;;
48925;SDS011;39838;59.938;30.642;2022-10-16T01:08:08;16.98;;;9.52;;
48925;SDS011;39838;59.938;30.642;2022-10-16T01:10:40;14.73;;;9.32;;
48925;SDS011;39838;59.938;30.642;2022-10-16T01:13:15;18.83;;;10.07;;
48925;SDS011;39838;59.938;30.642;2022-10-16T01:15:47;14.23;;;9.00;;
48925;SDS011;39838;59.938;30.642;2022-10-16T01:18:24;13.88;;;9.35;;
48925;SDS011;39838;59.938;30.642;2022-10-16T01:20:58;16.77;;;9.67;;
48925;SDS011;39838;59.938;30.642;2022-10-16T01:23:34;13.70;;;8.60;;
48925;SDS011;39838;59.938;30.642;2022-10-16T01:26:13;15.75;;;9.50;;
48925;SDS011;39838;59.938;30.642;2022-10-16T01:28:49;14.40;;;9.07;;
48925;SDS011;39838;59.938;30.642;2022-10-16T01:31:22;15.73;;;9.25;;
48925;SDS011;39838;59.938;30.642;2022-10-16T01:33:55;16.13;;;9.48;;
48925;SDS011;39838;59.938;30.642;2022-10-16T01:36:26;15.05;;;9.75;;
48925;SDS011;39838;59.938;30.642;2022-10-16T01:39:02;13.00;;;9.25;;
48925;SDS011;39838;59.938;30.642;2022-10-16T01:41:32;14.02;;;9.77;;
48925;SDS011;39838;59.938;30.642;2022-10-16T01:44:05;16.35;;;9.60;;
48925;SDS011;39838;59.938;30.642;2022-10-16T01:46:36;15.63;;;9.43;;
48925;SDS011;39838;59.938;30.642;2022-10-16T01:49:06;16.10;;;9.77;;
48925;SDS011;39838;59.938;30.642;2022-10-16T01:51:34;14.40;;;9.60;;
48925;SDS011;39838;59.938;30.642;2022-10-16T01:54:03;14.50;;;9.63;;
48925;SDS011;39838;59.938;30.642;2022-10-16T01:56:34;15.80;;;9.57;;
48925;SDS011;39838;59.938;30.642;2022-10-16T01:59:05;16.48;;;9.82;;
48925;SDS011;39838;59.938;30.642;2022-10-16T02:01:36;12.90;;;8.93;;
48925;SDS011;39838;59.938;30.642;2022-10-16T02:04:09;14.75;;;9.70;;
48925;SDS011;39838;59.938;30.642;2022-10-16T02:06:40;16.33;;;9.50;;
48925;SDS011;39838;59.938;30.642;2022-10-16T02:09:07;16.48;;;9.98;;
48925;SDS011;39838;59.938;30.642;2022-10-16T02:11:34;13.88;;;9.52;;
48925;SDS011;39838;59.938;30.642;2022-10-16T02:14:02;13.38;;;9.80;;
48925;SDS011;39838;59.938;30.642;2022-10-16T02:16:33;16.80;;;10.32;;
48925;SDS011;39838;59.938;30.642;2022-10-16T02:19:01;16.08;;;10.25;;
48925;SDS011;39838;59.938;30.642;2022-10-16T02:21:29;19.17;;;10.88;;
48925;SDS011;39838;59.938;30.642;2022-10-16T02:24:06;18.80;;;10.57;;
48925;SDS011;39838;59.938;30.642;2022-10-16T02:26:40;20.40;;;10.43;;
48925;SDS011;39838;59.938;30.642;2022-10-16T02:29:14;18.70;;;11.40;;
48925;SDS011;39838;59.938;30.642;2022-10-16T02:31:48;16.27;;;11.05;;
48925;SDS011;39838;59.938;30.642;2022-10-16T02:34:18;19.38;;;11.15;;
48925;SDS011;39838;59.938;30.642;2022-10-16T02:36:48;18.58;;;11.07;;
48925;SDS011;39838;59.938;30.642;2022-10-16T02:39:17;16.48;;;10.70;;
48925;SDS011;39838;59.938;30.642;2022-10-16T02:41:45;20.13;;;11.68;;
48925;SDS011;39838;59.938;30.642;2022-10-16T02:44:13;21.40;;;11.57;;
48925;SDS011;39838;59.938;30.642;2022-10-16T02:46:40;17.33;;;11.88;;
48925;SDS011;39838;59.938;30.642;2022-10-16T02:49:07;17.40;;;11.60;;
48925;SDS011;39838;59.938;30.642;2022-10-16T02:51:35;18.85;;;11.38;;
48925;SDS011;39838;59.938;30.642;2022-10-16T02:54:02;18.75;;;11.10;;
48925;SDS011;39838;59.938;30.642;2022-10-16T02:56:29;15.27;;;11.05;;
48925;SDS011;39838;59.938;30.642;2022-10-16T02:58:56;17.15;;;11.38;;
48925;SDS011;39838;59.938;30.642;2022-10-16T03:01:25;17.02;;;10.85;;
48925;SDS011;39838;59.938;30.642;2022-10-16T03:03:52;22.50;;;11.55;;
48925;SDS011;39838;59.938;30.642;2022-10-16T03:06:19;19.88;;;10.80;;
48925;SDS011;39838;59.938;30.642;2022-10-16T03:08:46;22.00;;;11.23;;
48925;SDS011;39838;59.938;30.642;2022-10-16T03:11:13;17.55;;;10.88;;
48925;SDS011;39838;59.938;30.642;2022-10-16T03:13:41;14.90;;;10.77;;
48925;SDS011;39838;59.938;30.642;2022-10-16T03:16:08;20.13;;;10.93;;
48925;SDS011;39838;59.938;30.642;2022-10-16T03:18:36;16.92;;;10.77;;
48925;SDS011;39838;59.938;30.642;2022-10-16T03:21:03;16.58;;;10.52;;
48925;SDS011;39838;59.938;30.642;2022-10-16T03:23:30;17.52;;;10.68;;
48925;SDS011;39838;59.938;30.642;2022-10-16T03:25:58;15.65;;;10.70;;
48925;SDS011;39838;59.938;30.642;2022-10-16T03:28:25;18.13;;;11.55;;
48925;SDS011;39838;59.938;30.642;2022-10-16T03:30:52;17.17;;;11.30;;
48925;SDS011;39838;59.938;30.642;2022-10-16T03:33:19;17.88;;;10.98;;
48925;SDS011;39838;59.938;30.642;2022-10-16T03:35:52;16.42;;;11.25;;
48925;SDS011;39838;59.938;30.642;2022-10-16T03:38:19;15.98;;;11.23;;
48925;SDS011;39838;59.938;30.642;2022-10-16T03:40:47;20.42;;;11.23;;
48925;SDS011;39838;59.938;30.642;2022-10-16T03:43:14;18.60;;;11.88;;
48925;SDS011;39838;59.938;30.642;2022-10-16T03:45:41;17.90;;;11.18;;
48925;SDS011;39838;59.938;30.642;2022-10-16T03:48:09;20.13;;;11.82;;
48925;SDS011;39838;59.938;30.642;2022-10-16T03:50:36;17.38;;;12.38;;
48925;SDS011;39838;59.938;30.642;2022-10-16T03:53:04;19.83;;;11.93;;
48925;SDS011;39838;59.938;30.642;2022-10-16T03:55:31;21.25;;;12.00;;
48925;SDS011;39838;59.938;30.642;2022-10-16T03:57:59;19.27;;;11.68;;
48925;SDS011;39838;59.938;30.642;2022-10-16T04:00:26;20.33;;;11.70;;
48925;SDS011;39838;59.938;30.642;2022-10-16T04:02:53;20.10;;;12.18;;
48925;SDS011;39838;59.938;30.642;2022-10-16T04:05:20;16.80;;;11.85;;
48925;SDS011;39838;59.938;30.642;2022-10-16T04:07:47;16.05;;;11.15;;
48925;SDS011;39838;59.938;30.642;2022-10-16T04:10:16;17.90;;;11.73;;
48925;SDS011;39838;59.938;30.642;2022-10-16T04:12:43;21.52;;;11.05;;
48925;SDS011;39838;59.938;30.642;2022-10-16T04:15:10;21.38;;;11.48;;
48925;SDS011;39838;59.938;30.642;2022-10-16T04:17:37;21.73;;;11.60;;
48925;SDS011;39838;59.938;30.642;2022-10-16T04:20:05;17.83;;;11.10;;
48925;SDS011;39838;59.938;30.642;2022-10-16T04:22:32;17.45;;;11.57;;
48925;SDS011;39838;59.938;30.642;2022-10-16T04:24:59;19.33;;;11.05;;
48925;SDS011;39838;59.938;30.642;2022-10-16T04:27:30;15.60;;;11.48;;
48925;SDS011;39838;59.938;30.642;2022-10-16T04:29:57;18.30;;;11.18;;
48925;SDS011;39838;59.938;30.642;2022-10-16T04:32:24;17.30;;;10.60;;
48925;SDS011;39838;59.938;30.642;2022-10-16T04:34:52;19.30;;;11.63;;
48925;SDS011;39838;59.938;30.642;2022-10-16T04:37:22;18.65;;;11.52;;
48925;SDS011;39838;59.938;30.642;2022-10-16T04:39:50;21.98;;;11.77;;
48925;SDS011;39838;59.938;30.642;2022-10-16T04:42:17;20.15;;;11.13;;
48925;SDS011;39838;59.938;30.642;2022-10-16T04:44:45;17.40;;;10.95;;
48925;SDS011;39838;59.938;30.642;2022-10-16T04:47:13;16.45;;;11.50;;
48925;SDS011;39838;59.938;30.642;2022-10-16T04:49:40;18.80;;;11.55;;
48925;SDS011;39838;59.938;30.642;2022-10-16T04:52:07;18.33;;;11.55;;
48925;SDS011;39838;59.938;30.642;2022-10-16T04:54:34;15.93;;;11.40;;
48925;SDS011;39838;59.938;30.642;2022-10-16T04:57:02;20.33;;;11.65;;
48925;SDS011;39838;59.938;30.642;2022-10-16T04:59:30;16.80;;;11.15;;
48925;SDS011;39838;59.938;30.642;2022-10-16T05:01:58;17.40;;;10.88;;
48925;SDS011;39838;59.938;30.642;2022-10-16T05:04:25;15.65;;;11.10;;
48925;SDS011;39838;59.938;30.642;2022-10-16T05:06:52;17.85;;;10.55;;
48925;SDS011;39838;59.938;30.642;2022-10-16T05:09:20;15.13;;;10.77;;
48925;SDS011;39838;59.938;30.642;2022-10-16T05:11:47;15.25;;;10.40;;
48925;SDS011;39838;59.938;30.642;2022-10-16T05:14:14;16.83;;;10.98;;
48925;SDS011;39838;59.938;30.642;2022-10-16T05:16:41;15.88;;;10.20;;
48925;SDS011;39838;59.938;30.642;2022-10-16T05:19:09;15.65;;;9.82;;
48925;SDS011;39838;59.938;30.642;2022-10-16T05:21:37;16.27;;;10.00;;
48925;SDS011;39838;59.938;30.642;2022-10-16T05:24:04;17.02;;;10.40;;
48925;SDS011;39838;59.938;30.642;2022-10-16T05:26:31;16.45;;;9.82;;
48925;SDS011;39838;59.938;30.642;2022-10-16T05:28:58;15.27;;;10.48;;
48925;SDS011;39838;59.938;30.642;2022-10-16T05:31:25;16.63;;;9.93;;
48925;SDS011;39838;59.938;30.642;2022-10-16T05:33:52;15.43;;;9.98;;
48925;SDS011;39838;59.938;30.642;2022-10-16T05:36:26;14.77;;;9.68;;
48925;SDS011;39838;59.938;30.642;2022-10-16T05:38:54;16.70;;;9.93;;
48925;SDS011;39838;59.938;30.642;2022-10-16T05:41:21;16.67;;;9.88;;
48925;SDS011;39838;59.938;30.642;2022-10-16T05:43:50;17.55;;;10.15;;
48925;SDS011;39838;59.938;30.642;2022-10-16T05:46:18;18.08;;;9.90;;
48925;SDS011;39838;59.938;30.642;2022-10-16T05:48:45;19.70;;;10.20;;
48925;SDS011;39838;59.938;30.642;2022-10-16T05:51:13;19.83;;;10.05;;
48925;SDS011;39838;59.938;30.642;2022-10-16T05:53:42;14.32;;;9.55;;
48925;SDS011;39838;59.938;30.642;2022-10-16T05:56:10;13.55;;;9.70;;
48925;SDS011;39838;59.938;30.642;2022-10-16T05:58:38;17.35;;;9.60;;
48925;SDS011;39838;59.938;30.642;2022-10-16T06:01:07;15.55;;;9.05;;
48925;SDS011;39838;59.938;30.642;2022-10-16T06:03:37;15.43;;;9.35;;
48925;SDS011;39838;59.938;30.642;2022-10-16T06:06:07;14.82;;;9.18;;
48925;SDS011;39838;59.938;30.642;2022-10-16T06:08:35;17.77;;;9.30;;
48925;SDS011;39838;59.938;30.642;2022-10-16T06:11:04;17.00;;;9.32;;
48925;SDS011;39838;59.938;30.642;2022-10-16T06:13:33;15.98;;;9.00;;
48925;SDS011;39838;59.938;30.642;2022-10-16T06:16:04;15.75;;;9.25;;
48925;SDS011;39838;59.938;30.642;2022-10-16T06:18:32;15.40;;;9.13;;
48925;SDS011;39838;59.938;30.642;2022-10-16T06:20:59;13.93;;;8.32;;
48925;SDS011;39838;59.938;30.642;2022-10-16T06:23:28;17.02;;;9.15;;
48925;SDS011;39838;59.938;30.642;2022-10-16T06:26:05;13.45;;;8.75;;
48925;SDS011;39838;59.938;30.642;2022-10-16T06:28:33;16.35;;;8.55;;
48925;SDS011;39838;59.938;30.642;2022-10-16T06:31:01;13.05;;;8.68;;
48925;SDS011;39838;59.938;30.642;2022-10-16T06:33:29;19.15;;;9.10;;
48925;SDS011;39838;59.938;30.642;2022-10-16T06:36:00;13.18;;;8.85;;
48925;SDS011;39838;59.938;30.642;2022-10-16T06:38:29;15.43;;;8.98;;
48925;SDS011;39838;59.938;30.642;2022-10-16T06:40:56;15.80;;;8.30;;
48925;SDS011;39838;59.938;30.642;2022-10-16T06:43:25;14.73;;;8.98;;
48925;SDS011;39838;59.938;30.642;2022-10-16T06:45:53;14.85;;;8.35;;
48925;SDS011;39838;59.938;30.642;2022-10-16T06:48:20;18.25;;;8.90;;
48925;SDS011;39838;59.938;30.642;2022-10-16T06:50:55;14.77;;;8.48;;
48925;SDS011;39838;59.938;30.642;2022-10-16T06:53:23;20.60;;;10.07;;
48925;SDS011;39838;59.938;30.642;2022-10-16T06:55:51;16.80;;;8.20;;
48925;SDS011;39838;59.938;30.642;2022-10-16T06:58:18;14.55;;;8.60;;
48925;SDS011;39838;59.938;30.642;2022-10-16T07:00:46;13.98;;;8.40;;
48925;SDS011;39838;59.938;30.642;2022-10-16T07:03:14;14.38;;;8.68;;
48925;SDS011;39838;59.938;30.642;2022-10-16T07:05:41;16.48;;;9.50;;
48925;SDS011;39838;59.938;30.642;2022-10-16T07:08:09;16.35;;;8.98;;
48925;SDS011;39838;59.938;30.642;2022-10-16T07:10:36;20.17;;;9.40;;
48925;SDS011;39838;59.938;30.642;2022-10-16T07:13:03;17.75;;;8.95;;
48925;SDS011;39838;59.938;30.642;2022-10-16T07:15:32;15.80;;;9.25;;
48925;SDS011;39838;59.938;30.642;2022-10-16T07:18:01;14.73;;;8.80;;
48925;SDS011;39838;59.938;30.642;2022-10-16T07:20:29;15.27;;;8.93;;
48925;SDS011;39838;59.938;30.642;2022-10-16T07:22:56;20.40;;;8.95;;
48925;SDS011;39838;59.938;30.642;2022-10-16T07:25:23;15.30;;;9.05;;
48925;SDS011;39838;59.938;30.642;2022-10-16T07:27:50;15.02;;;8.65;;
48925;SDS011;39838;59.938;30.642;2022-10-16T07:30:17;19.15;;;8.77;;
48925;SDS011;39838;59.938;30.642;2022-10-16T07:32:44;18.40;;;8.60;;
48925;SDS011;39838;59.938;30.642;2022-10-16T07:35:13;17.70;;;8.50;;
48925;SDS011;39838;59.938;30.642;2022-10-16T07:37:43;15.98;;;8.10;;
48925;SDS011;39838;59.938;30.642;2022-10-16T07:40:11;16.77;;;8.90;;
48925;SDS011;39838;59.938;30.642;2022-10-16T07:42:38;13.52;;;8.68;;
48925;SDS011;39838;59.938;30.642;2022-10-16T07:45:06;13.90;;;8.20;;
48925;SDS011;39838;59.938;30.642;2022-10-16T07:47:33;12.40;;;7.68;;
48925;SDS011;39838;59.938;30.642;2022-10-16T07:50:02;15.43;;;8.15;;
48925;SDS011;39838;59.938;30.642;2022-10-16T07:52:33;16.55;;;8.90;;
48925;SDS011;39838;59.938;30.642;2022-10-16T07:55:03;15.52;;;8.52;;
48925;SDS011;39838;59.938;30.642;2022-10-16T07:57:31;16.83;;;8.68;;
48925;SDS011;39838;59.938;30.642;2022-10-16T07:59:58;18.00;;;8.48;;
48925;SDS011;39838;59.938;30.642;2022-10-16T08:02:25;19.80;;;8.82;;
48925;SDS011;39838;59.938;30.642;2022-10-16T08:04:52;17.65;;;8.20;;
48925;SDS011;39838;59.938;30.642;2022-10-16T08:07:19;13.57;;;8.13;;
48925;SDS011;39838;59.938;30.642;2022-10-16T08:09:50;14.15;;;8.45;;
48925;SDS011;39838;59.938;30.642;2022-10-16T08:12:17;13.25;;;7.97;;
48925;SDS011;39838;59.938;30.642;2022-10-16T08:14:44;15.63;;;7.95;;
48925;SDS011;39838;59.938;30.642;2022-10-16T08:17:13;13.13;;;8.07;;
48925;SDS011;39838;59.938;30.642;2022-10-16T08:19:43;15.38;;;8.38;;
48925;SDS011;39838;59.938;30.642;2022-10-16T08:22:16;11.98;;;7.50;;
48925;SDS011;39838;59.938;30.642;2022-10-16T08:24:43;17.77;;;8.77;;
48925;SDS011;39838;59.938;30.642;2022-10-16T08:27:11;13.48;;;8.30;;
48925;SDS011;39838;59.938;30.642;2022-10-16T08:29:42;13.07;;;7.63;;
48925;SDS011;39838;59.938;30.642;2022-10-16T08:32:09;15.45;;;8.18;;
48925;SDS011;39838;59.938;30.642;2022-10-16T08:34:36;16.98;;;8.25;;
48925;SDS011;39838;59.938;30.642;2022-10-16T08:37:04;14.98;;;8.77;;
48925;SDS011;39838;59.938;30.642;2022-10-16T08:39:35;16.08;;;8.20;;
48925;SDS011;39838;59.938;30.642;2022-10-16T08:45:21;16.83;;;8.05;;
48925;SDS011;39838;59.938;30.642;2022-10-16T08:48:00;12.32;;;7.85;;
48925;SDS011;39838;59.938;30.642;2022-10-16T08:50:41;16.17;;;8.00;;
48925;SDS011;39838;59.938;30.642;2022-10-16T08:53:10;13.02;;;7.25;;
48925;SDS011;39838;59.938;30.642;2022-10-16T08:55:49;16.38;;;8.30;;
48925;SDS011;39838;59.938;30.642;2022-10-16T08:58:19;13.18;;;7.60;;
48925;SDS011;39838;59.938;30.642;2022-10-16T09:00:48;12.68;;;7.78;;
48925;SDS011;39838;59.938;30.642;2022-10-16T09:03:23;16.23;;;8.38;;
48925;SDS011;39838;59.938;30.642;2022-10-16T09:06:08;14.18;;;8.10;;
48925;SDS011;39838;59.938;30.642;2022-10-16T09:08:47;12.85;;;7.65;;
48925;SDS011;39838;59.938;30.642;2022-10-16T09:11:30;12.75;;;7.93;;
48925;SDS011;39838;59.938;30.642;2022-10-16T09:14:18;12.55;;;8.27;;
48925;SDS011;39838;59.938;30.642;2022-10-16T09:17:04;12.38;;;7.85;;
48925;SDS011;39838;59.938;30.642;2022-10-16T09:19:41;16.23;;;7.70;;
48925;SDS011;39838;59.938;30.642;2022-10-16T09:22:14;15.50;;;8.32;;
48925;SDS011;39838;59.938;30.642;2022-10-16T09:24:43;13.82;;;7.75;;
48925;SDS011;39838;59.938;30.642;2022-10-16T09:27:10;15.13;;;8.13;;
48925;SDS011;39838;59.938;30.642;2022-10-16T09:29:40;16.38;;;8.63;;
48925;SDS011;39838;59.938;30.642;2022-10-16T09:32:09;13.27;;;8.00;;
48925;SDS011;39838;59.938;30.642;2022-10-16T09:34:45;14.15;;;8.68;;
48925;SDS011;39838;59.938;30.642;2022-10-16T09:37:17;13.37;;;8.77;;
48925;SDS011;39838;59.938;30.642;2022-10-16T09:39:47;16.73;;;8.70;;
48925;SDS011;39838;59.938;30.642;2022-10-16T09:42:16;16.95;;;8.02;;
48925;SDS011;39838;59.938;30.642;2022-10-16T09:44:48;15.10;;;8.73;;
48925;SDS011;39838;59.938;30.642;2022-10-16T09:47:19;17.80;;;8.73;;
48925;SDS011;39838;59.938;30.642;2022-10-16T09:49:51;16.88;;;8.45;;
48925;SDS011;39838;59.938;30.642;2022-10-16T09:52:21;14.18;;;9.05;;
48925;SDS011;39838;59.938;30.642;2022-10-16T09:54:49;14.85;;;8.40;;
48925;SDS011;39838;59.938;30.642;2022-10-16T09:57:17;14.90;;;9.43;;
48925;SDS011;39838;59.938;30.642;2022-10-16T09:59:45;12.57;;;8.90;;
48925;SDS011;39838;59.938;30.642;2022-10-16T10:02:17;15.85;;;8.82;;
48925;SDS011;39838;59.938;30.642;2022-10-16T10:04:50;18.42;;;8.90;;
48925;SDS011;39838;59.938;30.642;2022-10-16T10:07:21;17.90;;;9.27;;
48925;SDS011;39838;59.938;30.642;2022-10-16T10:09:51;20.50;;;8.98;;
48925;SDS011;39838;59.938;30.642;2022-10-16T10:12:21;18.20;;;10.23;;
48925;SDS011;39838;59.938;30.642;2022-10-16T10:14:54;15.70;;;8.48;;
48925;SDS011;39838;59.938;30.642;2022-10-16T10:17:25;17.13;;;10.05;;
48925;SDS011;39838;59.938;30.642;2022-10-16T10:19:55;18.60;;;11.05;;
48925;SDS011;39838;59.938;30.642;2022-10-16T10:22:27;23.48;;;12.60;;
48925;SDS011;39838;59.938;30.642;2022-10-16T10:25:12;22.27;;;12.18;;
48925;SDS011;39838;59.938;30.642;2022-10-16T10:27:52;18.48;;;9.27;;
48925;SDS011;39838;59.938;30.642;2022-10-16T10:30:36;14.73;;;8.73;;
48925;SDS011;39838;59.938;30.642;2022-10-16T10:33:15;13.25;;;8.98;;
48925;SDS011;39838;59.938;30.642;2022-10-16T10:35:54;14.38;;;8.63;;
48925;SDS011;39838;59.938;30.642;2022-10-16T10:38:31;15.30;;;8.18;;
48925;SDS011;39838;59.938;30.642;2022-10-16T10:41:10;14.77;;;8.63;;
48925;SDS011;39838;59.938;30.642;2022-10-16T10:43:49;15.35;;;8.32;;
48925;SDS011;39838;59.938;30.642;2022-10-16T10:46:31;15.57;;;9.25;;
48925;SDS011;39838;59.938;30.642;2022-10-16T10:49:10;18.52;;;9.88;;
48925;SDS011;39838;59.938;30.642;2022-10-16T10:51:51;14.55;;;9.02;;
48925;SDS011;39838;59.938;30.642;2022-10-16T10:54:30;14.07;;;8.48;;
48925;SDS011;39838;59.938;30.642;2022-10-16T10:57:04;15.05;;;8.57;;
48925;SDS011;39838;59.938;30.642;2022-10-16T10:59:49;14.60;;;8.77;;
48925;SDS011;39838;59.938;30.642;2022-10-16T11:05:07;14.05;;;7.70;;
48925;SDS011;39838;59.938;30.642;2022-10-16T11:07:47;13.02;;;7.72;;
48925;SDS011;39838;59.938;30.642;2022-10-16T11:10:20;13.60;;;7.90;;
48925;SDS011;39838;59.938;30.642;2022-10-16T11:12:49;13.75;;;8.43;;
48925;SDS011;39838;59.938;30.642;2022-10-16T11:15:23;17.63;;;10.05;;
48925;SDS011;39838;59.938;30.642;2022-10-16T11:17:57;18.58;;;8.80;;
48925;SDS011;39838;59.938;30.642;2022-10-16T11:20:31;15.27;;;8.00;;
48925;SDS011;39838;59.938;30.642;2022-10-16T11:23:02;15.32;;;8.43;;
48925;SDS011;39838;59.938;30.642;2022-10-16T11:25:40;15.43;;;8.35;;
48925;SDS011;39838;59.938;30.642;2022-10-16T11:28:11;17.70;;;8.07;;
48925;SDS011;39838;59.938;30.642;2022-10-16T11:30:42;13.95;;;8.43;;
48925;SDS011;39838;59.938;30.642;2022-10-16T11:33:21;13.75;;;8.30;;
48925;SDS011;39838;59.938;30.642;2022-10-16T11:35:59;14.95;;;8.15;;
48925;SDS011;39838;59.938;30.642;2022-10-16T11:38:32;12.57;;;8.13;;
48925;SDS011;39838;59.938;30.642;2022-10-16T11:41:09;14.50;;;7.78;;
48925;SDS011;39838;59.938;30.642;2022-10-16T11:43:44;15.18;;;8.50;;
48925;SDS011;39838;59.938;30.642;2022-10-16T11:46:19;14.38;;;7.90;;
48925;SDS011;39838;59.938;30.642;2022-10-16T11:48:54;15.57;;;9.23;;
48925;SDS011;39838;59.938;30.642;2022-10-16T11:51:31;16.13;;;8.75;;
48925;SDS011;39838;59.938;30.642;2022-10-16T11:54:07;14.07;;;8.55;;
48925;SDS011;39838;59.938;30.642;2022-10-16T11:56:43;12.32;;;8.50;;
48925;SDS011;39838;59.938;30.642;2022-10-16T11:59:14;14.70;;;8.25;;
48925;SDS011;39838;59.938;30.642;2022-10-16T12:01:51;12.85;;;7.78;;
48925;SDS011;39838;59.938;30.642;2022-10-16T12:04:28;17.58;;;9.82;;
48925;SDS011;39838;59.938;30.642;2022-10-16T12:07:11;17.98;;;9.40;;
48925;SDS011;39838;59.938;30.642;2022-10-16T12:09:45;25.90;;;11.68;;
48925;SDS011;39838;59.938;30.642;2022-10-16T12:12:25;19.85;;;11.45;;
48925;SDS011;39838;59.938;30.642;2022-10-16T12:15:03;19.17;;;10.00;;
48925;SDS011;39838;59.938;30.642;2022-10-16T12:17:46;17.77;;;9.30;;
48925;SDS011;39838;59.938;30.642;2022-10-16T12:23:16;13.23;;;8.38;;
48925;SDS011;39838;59.938;30.642;2022-10-16T12:25:53;12.10;;;8.20;;
48925;SDS011;39838;59.938;30.642;2022-10-16T12:28:22;16.45;;;8.85;;
48925;SDS011;39838;59.938;30.642;2022-10-16T12:30:54;16.50;;;8.13;;
48925;SDS011;39838;59.938;30.642;2022-10-16T12:33:24;14.52;;;8.43;;
48925;SDS011;39838;59.938;30.642;2022-10-16T12:35:55;14.75;;;8.70;;
48925;SDS011;39838;59.938;30.642;2022-10-16T12:38:25;15.65;;;9.80;;
48925;SDS011;39838;59.938;30.642;2022-10-16T12:40:55;15.60;;;9.35;;
48925;SDS011;39838;59.938;30.642;2022-10-16T12:43:27;14.65;;;9.20;;
48925;SDS011;39838;59.938;30.642;2022-10-16T12:46:21;14.75;;;8.70;;
48925;SDS011;39838;59.938;30.642;2022-10-16T12:48:51;17.02;;;8.85;;
48925;SDS011;39838;59.938;30.642;2022-10-16T12:51:24;15.70;;;8.43;;
48925;SDS011;39838;59.938;30.642;2022-10-16T12:53:59;11.70;;;8.10;;
48925;SDS011;39838;59.938;30.642;2022-10-16T12:56:36;14.43;;;8.23;;
48925;SDS011;39838;59.938;30.642;2022-10-16T12:59:20;13.68;;;8.50;;
48925;SDS011;39838;59.938;30.642;2022-10-16T13:05:04;11.80;;;8.07;;
48925;SDS011;39838;59.938;30.642;2022-10-16T13:07:50;13.65;;;8.27;;
48925;SDS011;39838;59.938;30.642;2022-10-16T13:10:26;13.48;;;8.80;;
48925;SDS011;39838;59.938;30.642;2022-10-16T13:13:06;14.13;;;9.05;;
48925;SDS011;39838;59.938;30.642;2022-10-16T13:15:53;16.33;;;8.80;;
48925;SDS011;39838;59.938;30.642;2022-10-16T13:18:32;15.07;;;9.27;;
48925;SDS011;39838;59.938;30.642;2022-10-16T13:21:08;19.42;;;11.00;;
48925;SDS011;39838;59.938;30.642;2022-10-16T13:23:51;16.60;;;9.57;;
48925;SDS011;39838;59.938;30.642;2022-10-16T13:26:30;18.60;;;10.13;;
48925;SDS011;39838;59.938;30.642;2022-10-16T13:29:05;16.17;;;9.95;;
48925;SDS011;39838;59.938;30.642;2022-10-16T13:31:33;19.58;;;10.25;;
48925;SDS011;39838;59.938;30.642;2022-10-16T13:34:02;19.27;;;11.13;;
48925;SDS011;39838;59.938;30.642;2022-10-16T13:36:34;17.48;;;10.68;;
48925;SDS011;39838;59.938;30.642;2022-10-16T13:39:10;18.80;;;11.07;;
48925;SDS011;39838;59.938;30.642;2022-10-16T13:41:39;18.17;;;10.38;;
48925;SDS011;39838;59.938;30.642;2022-10-16T13:44:09;16.40;;;10.73;;
48925;SDS011;39838;59.938;30.642;2022-10-16T13:46:57;18.08;;;9.52;;
48925;SDS011;39838;59.938;30.642;2022-10-16T13:49:25;18.70;;;10.45;;
48925;SDS011;39838;59.938;30.642;2022-10-16T13:51:55;21.80;;;11.80;;
48925;SDS011;39838;59.938;30.642;2022-10-16T13:54:27;17.33;;;10.97;;
48925;SDS011;39838;59.938;30.642;2022-10-16T13:56:55;17.20;;;10.55;;
48925;SDS011;39838;59.938;30.642;2022-10-16T13:59:24;18.05;;;9.88;;
48925;SDS011;39838;59.938;30.642;2022-10-16T14:01:52;20.73;;;11.15;;
48925;SDS011;39838;59.938;30.642;2022-10-16T14:04:22;19.00;;;11.63;;
48925;SDS011;39838;59.938;30.642;2022-10-16T14:06:50;18.48;;;11.60;;
48925;SDS011;39838;59.938;30.642;2022-10-16T14:09:23;22.80;;;12.85;;
48925;SDS011;39838;59.938;30.642;2022-10-16T14:11:59;20.77;;;12.15;;
48925;SDS011;39838;59.938;30.642;2022-10-16T14:14:31;19.42;;;12.93;;
48925;SDS011;39838;59.938;30.642;2022-10-16T14:17:02;24.65;;;13.20;;
48925;SDS011;39838;59.938;30.642;2022-10-16T14:19:32;21.05;;;12.50;;
48925;SDS011;39838;59.938;30.642;2022-10-16T14:21:59;23.48;;;13.10;;
48925;SDS011;39838;59.938;30.642;2022-10-16T14:24:31;21.63;;;12.90;;
48925;SDS011;39838;59.938;30.642;2022-10-16T14:32:52;19.85;;;12.73;;
48925;SDS011;39838;59.938;30.642;2022-10-16T14:35:24;19.08;;;11.80;;
48925;SDS011;39838;59.938;30.642;2022-10-16T14:37:53;17.90;;;12.13;;
48925;SDS011;39838;59.938;30.642;2022-10-16T14:40:23;22.90;;;12.93;;
48925;SDS011;39838;59.938;30.642;2022-10-16T14:42:53;19.75;;;11.90;;
48925;SDS011;39838;59.938;30.642;2022-10-16T14:45:21;20.85;;;12.82;;
48925;SDS011;39838;59.938;30.642;2022-10-16T14:47:51;22.42;;;12.98;;
48925;SDS011;39838;59.938;30.642;2022-10-16T14:50:20;23.95;;;13.35;;
48925;SDS011;39838;59.938;30.642;2022-10-16T14:52:48;23.85;;;12.70;;
48925;SDS011;39838;59.938;30.642;2022-10-16T14:55:18;22.77;;;13.68;;